Time;durP1;ratioP1;P1;durP2;ratioP2;P2;SDS_P1;SDS_P2;PMS_P1;PMS_P2;Temp;Humidity;BMP_temperature;BMP_pressure;BME280_temperature;BME280_humidity;BME280_pressure;Samples;Min_cycle;Max_cycle;Signal;HPM_P1;HPM_P2
2021/07/15 00:00:55;;;;;;;11.90;7.97;;;16.60;99.90;;;;;;4994695;28;20786;-68
2021/07/15 00:03:28;;;;;;;13.87;8.37;;;16.60;99.90;;;;;;4994343;28;20486;-67
2021/07/15 00:05:57;;;;;;;14.70;8.57;;;16.60;99.90;;;;;;4994673;28;20828;-67
2021/07/15 00:08:26;;;;;;;18.50;9.00;;;16.50;99.90;;;;;;4994575;28;20471;-67
2021/07/15 00:10:57;;;;;;;11.77;7.63;;;16.50;99.90;;;;;;4994546;28;20447;-68
2021/07/15 00:13:24;;;;;;;12.03;8.37;;;16.50;99.90;;;;;;4994473;28;20446;-67
2021/07/15 00:15:53;;;;;;;8.50;6.93;;;16.50;99.90;;;;;;4994372;28;20454;-67
2021/07/15 00:18:22;;;;;;;12.93;8.37;;;16.50;99.90;;;;;;4994263;28;20476;-68
2021/07/15 00:20:50;;;;;;;14.90;9.30;;;16.50;99.90;;;;;;4994448;28;20450;-67
2021/07/15 00:23:18;;;;;;;14.33;8.70;;;16.50;99.90;;;;;;4994108;28;20479;-67
2021/07/15 00:25:46;;;;;;;11.20;8.20;;;16.60;99.90;;;;;;4994277;28;20450;-67
2021/07/15 00:28:13;;;;;;;16.13;10.17;;;16.60;99.90;;;;;;5020654;22;20478;-67
2021/07/15 00:30:41;;;;;;;15.17;9.30;;;16.60;99.90;;;;;;5014435;28;20973;-66
2021/07/15 00:33:08;;;;;;;14.30;8.63;;;16.70;99.90;;;;;;5015526;28;20449;-66
2021/07/15 00:35:35;;;;;;;15.00;9.57;;;16.70;99.90;;;;;;5014825;28;20450;-66
2021/07/15 00:38:03;;;;;;;15.90;10.63;;;16.70;99.90;;;;;;5015720;28;20446;-65
2021/07/15 00:40:32;;;;;;;16.20;9.40;;;16.70;99.90;;;;;;5014541;28;20474;-66
2021/07/15 00:42:59;;;;;;;13.47;9.67;;;16.70;99.90;;;;;;5014013;28;20482;-66
2021/07/15 00:45:26;;;;;;;19.63;9.80;;;16.70;99.90;;;;;;5014738;28;20458;-66
2021/07/15 00:47:53;;;;;;;13.50;8.47;;;16.70;99.90;;;;;;5014943;28;20450;-68
2021/07/15 00:50:21;;;;;;;15.37;9.13;;;16.70;99.90;;;;;;5015084;28;20836;-68
2021/07/15 00:52:50;;;;;;;12.27;10.30;;;16.70;99.90;;;;;;5015512;28;20449;-67
2021/07/15 00:55:21;;;;;;;13.77;8.40;;;16.60;99.90;;;;;;5015088;28;20476;-67
2021/07/15 00:57:51;;;;;;;17.83;10.03;;;16.70;99.90;;;;;;5014421;28;20450;-67
2021/07/15 01:00:18;;;;;;;14.73;10.40;;;16.70;99.90;;;;;;5013899;28;20466;-68
2021/07/15 01:02:45;;;;;;;17.93;11.47;;;16.70;99.90;;;;;;5013847;28;20947;-67
2021/07/15 01:05:14;;;;;;;12.60;9.10;;;16.80;99.90;;;;;;5013691;28;20442;-68
2021/07/15 01:07:41;;;;;;;11.63;7.73;;;16.80;99.90;;;;;;5013382;28;20445;-68
2021/07/15 01:10:10;;;;;;;13.33;8.63;;;16.90;99.90;;;;;;5013296;28;20832;-68
2021/07/15 01:12:52;;;;;;;15.10;8.77;;;16.80;99.90;;;;;;5013729;28;20446;-67
2021/07/15 01:15:22;;;;;;;18.10;8.60;;;16.80;99.90;;;;;;5015540;28;20448;-67
2021/07/15 01:18:00;;;;;;;11.93;8.10;;;16.80;99.90;;;;;;5016099;28;20446;-67
2021/07/15 01:21:10;;;;;;;12.60;8.73;;;16.90;99.90;;;;;;5015652;28;20465;-67
2021/07/15 01:24:18;;;;;;;11.87;8.90;;;16.90;99.90;;;;;;5014611;28;20485;-67
2021/07/15 01:27:00;;;;;;;13.80;8.00;;;16.90;99.90;;;;;;5013557;28;20828;-67
2021/07/15 01:29:34;;;;;;;10.63;7.37;;;16.90;99.90;;;;;;5013251;28;20852;-67
2021/07/15 01:32:06;;;;;;;13.83;8.10;;;16.90;99.90;;;;;;5014440;28;20461;-67
2021/07/15 01:34:35;;;;;;;12.37;8.60;;;16.90;99.90;;;;;;5015967;28;20441;-67
2021/07/15 01:37:03;;;;;;;10.30;7.73;;;16.80;99.90;;;;;;5016661;28;20453;-67
2021/07/15 01:39:34;;;;;;;11.70;8.60;;;16.80;99.90;;;;;;5015812;28;20470;-68
2021/07/15 01:42:05;;;;;;;10.23;8.47;;;16.70;99.90;;;;;;5014475;28;20453;-67
2021/07/15 01:44:33;;;;;;;11.87;7.20;;;16.70;99.90;;;;;;5013150;28;20513;-67
2021/07/15 01:47:01;;;;;;;10.27;7.93;;;16.60;99.90;;;;;;5013180;28;20453;-67
2021/07/15 01:49:29;;;;;;;11.27;6.37;;;16.60;99.90;;;;;;5014449;28;20466;-68
2021/07/15 01:51:59;;;;;;;10.80;7.37;;;16.60;99.90;;;;;;5016011;28;20446;-68
2021/07/15 01:54:26;;;;;;;8.77;7.70;;;16.60;99.90;;;;;;5015503;28;20446;-68
2021/07/15 01:56:54;;;;;;;7.93;7.13;;;16.50;99.90;;;;;;5014387;28;20450;-67
2021/07/15 01:59:23;;;;;;;7.77;6.67;;;16.60;99.90;;;;;;5013593;28;20469;-67
2021/07/15 02:01:52;;;;;;;7.20;5.80;;;16.60;99.90;;;;;;5013133;28;20450;-67
2021/07/15 02:04:20;;;;;;;9.57;6.00;;;16.70;99.90;;;;;;5013244;28;20481;-67
2021/07/15 02:06:50;;;;;;;7.43;6.17;;;16.70;99.90;;;;;;5014513;28;20446;-67
2021/07/15 02:09:18;;;;;;;12.37;6.93;;;16.70;99.90;;;;;;5015858;28;20832;-67
2021/07/15 02:11:48;;;;;;;9.70;6.07;;;16.70;99.90;;;;;;5015043;28;20450;-67
2021/07/15 02:14:16;;;;;;;7.70;6.67;;;16.80;99.90;;;;;;5014484;28;21107;-68
2021/07/15 02:16:45;;;;;;;6.87;6.20;;;16.80;99.90;;;;;;5013509;28;20958;-68
2021/07/15 02:19:14;;;;;;;7.17;6.13;;;16.80;99.90;;;;;;5013834;28;20470;-67
2021/07/15 02:21:42;;;;;;;6.23;5.63;;;16.80;99.90;;;;;;5013740;28;20450;-68
2021/07/15 02:24:12;;;;;;;5.20;4.70;;;16.80;99.90;;;;;;5014391;28;20485;-67
2021/07/15 02:26:40;;;;;;;7.13;5.20;;;16.90;99.90;;;;;;5015097;28;20453;-68
2021/07/15 02:29:07;;;;;;;5.87;5.37;;;16.90;99.90;;;;;;5014315;28;20500;-67
2021/07/15 02:31:38;;;;;;;7.23;4.97;;;16.90;99.90;;;;;;5014031;28;20457;-67
2021/07/15 02:34:10;;;;;;;6.83;4.80;;;16.90;99.90;;;;;;5013780;28;20959;-67
2021/07/15 02:36:39;;;;;;;5.50;5.13;;;17.00;99.90;;;;;;5013483;28;20450;-67
2021/07/15 02:39:07;;;;;;;10.77;5.13;;;17.10;99.90;;;;;;5013215;28;20497;-68
2021/07/15 02:41:36;;;;;;;10.03;4.60;;;17.10;99.90;;;;;;5013786;28;20449;-67
2021/07/15 02:44:03;;;;;;;6.83;6.23;;;17.10;99.90;;;;;;5014535;28;20481;-67
2021/07/15 02:46:31;;;;;;;6.47;5.47;;;17.10;99.90;;;;;;5015307;28;20449;-67
2021/07/15 02:48:58;;;;;;;5.33;4.70;;;17.10;99.90;;;;;;5014165;28;20524;-67
2021/07/15 02:51:24;;;;;;;4.37;4.07;;;17.00;99.90;;;;;;5013560;28;20446;-67
2021/07/15 02:53:52;;;;;;;5.97;4.57;;;17.00;99.90;;;;;;5013498;28;20453;-67
2021/07/15 02:56:24;;;;;;;3.70;3.33;;;17.00;99.90;;;;;;5013403;28;20450;-67
2021/07/15 02:59:02;;;;;;;5.07;4.53;;;17.00;99.90;;;;;;5014336;28;20975;-67
2021/07/15 03:01:35;;;;;;;4.50;4.10;;;17.00;99.90;;;;;;5018414;28;20519;-67
2021/07/15 03:04:09;;;;;;;4.33;4.07;;;17.00;99.90;;;;;;5019097;28;20481;-67
2021/07/15 03:06:38;;;;;;;3.87;3.57;;;16.90;99.90;;;;;;5017960;28;20445;-67
2021/07/15 03:09:11;;;;;;;6.30;5.37;;;16.90;99.90;;;;;;5017518;28;20481;-67
2021/07/15 03:11:42;;;;;;;9.63;5.50;;;16.80;99.90;;;;;;5016712;28;20483;-67
2021/07/15 03:14:10;;;;;;;6.07;5.17;;;16.80;99.90;;;;;;5016479;28;20442;-68
2021/07/15 03:16:40;;;;;;;5.70;5.20;;;16.70;99.90;;;;;;5017665;28;20453;-67
2021/07/15 03:19:08;;;;;;;4.97;4.60;;;16.70;99.90;;;;;;5018269;28;20508;-67
2021/07/15 03:21:36;;;;;;;6.10;5.40;;;16.70;99.90;;;;;;5018216;28;20442;-67
2021/07/15 03:24:05;;;;;;;8.07;5.57;;;16.60;99.90;;;;;;5017648;28;20492;-67
2021/07/15 03:26:33;;;;;;;7.53;6.73;;;16.50;99.90;;;;;;5016870;28;20454;-67
2021/07/15 03:29:00;;;;;;;18.67;14.27;;;16.50;99.90;;;;;;5016533;28;20486;-68
2021/07/15 03:31:29;;;;;;;12.40;9.23;;;16.40;99.90;;;;;;5016713;28;20449;-67
2021/07/15 03:33:56;;;;;;;11.00;9.70;;;16.40;99.90;;;;;;5016972;28;20969;-67
2021/07/15 03:36:23;;;;;;;10.40;9.20;;;16.40;99.90;;;;;;5018286;28;20442;-67
2021/07/15 03:38:51;;;;;;;9.20;8.13;;;16.40;99.90;;;;;;5018761;28;20469;-67
2021/07/15 03:41:18;;;;;;;8.20;7.30;;;16.50;99.90;;;;;;5017015;28;20457;-67
2021/07/15 03:43:46;;;;;;;8.10;6.93;;;16.50;99.90;;;;;;5016120;28;20481;-68
2021/07/15 03:46:13;;;;;;;11.13;8.23;;;16.50;99.90;;;;;;5016242;28;20445;-68
2021/07/15 03:48:44;;;;;;;14.30;8.77;;;16.60;99.90;;;;;;5016897;28;20473;-67
2021/07/15 03:51:12;;;;;;;11.30;7.80;;;16.60;99.90;;;;;;5017409;28;20450;-66
2021/07/15 03:53:40;;;;;;;7.83;7.03;;;16.70;99.90;;;;;;5017624;28;20453;-67
2021/07/15 03:56:11;;;;;;;8.50;7.47;;;16.80;99.90;;;;;;5017283;28;20450;-67
2021/07/15 03:58:41;;;;;;;6.70;5.97;;;16.80;99.90;;;;;;5017010;28;20465;-67
2021/07/15 04:01:11;;;;;;;11.20;6.83;;;16.80;99.90;;;;;;5016534;28;20545;-67
2021/07/15 04:03:40;;;;;;;11.00;7.60;;;16.90;99.90;;;;;;5016164;28;20457;-67
2021/07/15 04:06:10;;;;;;;8.70;7.77;;;16.90;99.90;;;;;;5016488;28;20450;-67
2021/07/15 04:08:39;;;;;;;8.20;7.40;;;16.90;99.90;;;;;;5016545;28;20470;-67
2021/07/15 04:11:07;;;;;;;8.83;8.00;;;17.00;99.90;;;;;;5016816;28;20445;-67
2021/07/15 04:13:35;;;;;;;11.17;10.07;;;17.00;99.90;;;;;;5016627;28;20453;-67
2021/07/15 04:16:33;;;;;;;8.37;7.53;;;17.00;99.90;;;;;;5015255;28;20484;-68
2021/07/15 04:19:04;;;;;;;6.90;6.40;;;17.00;99.90;;;;;;5008775;28;20465;-67
2021/07/15 04:21:34;;;;;;;8.83;8.07;;;17.10;99.90;;;;;;5016073;28;20533;-67
2021/07/15 04:24:02;;;;;;;8.00;7.30;;;17.10;99.90;;;;;;5017061;28;20532;-67
2021/07/15 04:26:29;;;;;;;7.37;6.67;;;17.10;99.90;;;;;;5016834;28;20450;-67
2021/07/15 04:28:57;;;;;;;6.90;6.30;;;17.10;99.90;;;;;;5015563;28;20485;-67
2021/07/15 04:31:34;;;;;;;5.83;5.33;;;17.20;99.90;;;;;;5015558;28;20825;-67
2021/07/15 04:34:01;;;;;;;5.00;4.53;;;17.30;99.90;;;;;;5015212;28;20946;-68
2021/07/15 04:36:32;;;;;;;6.70;4.83;;;17.30;99.90;;;;;;5015554;28;20442;-66
2021/07/15 04:39:00;;;;;;;5.90;5.33;;;17.30;99.90;;;;;;5014638;28;20472;-67
2021/07/15 04:41:28;;;;;;;6.03;5.63;;;17.30;99.90;;;;;;5014274;28;20940;-66
2021/07/15 04:43:58;;;;;;;6.07;5.63;;;17.50;99.90;;;;;;5014578;28;20449;-67
2021/07/15 04:46:24;;;;;;;5.33;4.93;;;17.70;99.90;;;;;;5014705;28;20450;-66
2021/07/15 04:48:51;;;;;;;5.10;4.70;;;17.80;99.90;;;;;;5014719;28;20466;-67
2021/07/15 04:51:19;;;;;;;6.87;5.30;;;17.90;99.90;;;;;;5014241;28;20454;-67
2021/07/15 04:53:48;;;;;;;6.43;5.83;;;18.00;99.90;;;;;;5014484;28;20446;-66
2021/07/15 04:56:16;;;;;;;5.67;5.27;;;18.00;99.90;;;;;;5014543;28;20660;-66
2021/07/15 04:58:43;;;;;;;6.10;4.70;;;18.00;99.90;;;;;;5014429;28;20478;-66
2021/07/15 05:01:10;;;;;;;7.60;5.40;;;17.90;99.90;;;;;;5014842;28;20454;-67
2021/07/15 05:03:38;;;;;;;6.13;5.53;;;17.90;99.90;;;;;;5014067;28;20461;-66
2021/07/15 05:06:07;;;;;;;6.53;5.90;;;18.00;99.90;;;;;;5013970;28;20489;-66
2021/07/15 05:08:35;;;;;;;7.40;5.10;;;18.00;99.90;;;;;;5014532;28;20479;-67
2021/07/15 05:11:03;;;;;;;8.50;4.40;;;18.00;99.90;;;;;;5014010;28;20449;-66
2021/07/15 05:13:30;;;;;;;6.47;5.97;;;18.00;99.90;;;;;;5014483;28;20450;-66
2021/07/15 05:15:57;;;;;;;5.40;4.97;;;18.10;99.90;;;;;;5014470;28;20442;-66
2021/07/15 05:18:23;;;;;;;6.50;6.00;;;18.20;99.90;;;;;;5014177;28;20458;-67
2021/07/15 05:20:50;;;;;;;8.60;7.97;;;18.20;99.90;;;;;;5014334;28;20920;-67
2021/07/15 05:23:18;;;;;;;7.23;6.57;;;18.30;99.90;;;;;;5013150;28;20446;-67
2021/07/15 05:25:45;;;;;;;7.13;6.30;;;18.40;99.90;;;;;;5013749;28;21104;-67
2021/07/15 05:28:13;;;;;;;6.97;6.47;;;18.50;99.90;;;;;;5013812;28;20446;-67
2021/07/15 05:30:40;;;;;;;6.60;6.00;;;18.60;99.90;;;;;;5014268;28;20453;-66
2021/07/15 05:33:07;;;;;;;7.40;6.10;;;18.70;99.90;;;;;;5014438;28;20504;-67
2021/07/15 05:35:34;;;;;;;6.33;5.70;;;18.80;99.90;;;;;;5014354;28;20947;-66
2021/07/15 05:38:01;;;;;;;6.77;6.37;;;18.80;99.90;;;;;;5013831;28;20459;-67
2021/07/15 05:40:28;;;;;;;7.57;6.97;;;18.90;99.90;;;;;;5014305;28;20477;-66
2021/07/15 05:42:55;;;;;;;9.00;8.20;;;19.00;99.90;;;;;;5013657;28;20958;-67
2021/07/15 05:45:23;;;;;;;9.57;8.67;;;19.10;99.90;;;;;;5013949;28;20886;-67
2021/07/15 05:47:50;;;;;;;7.13;6.63;;;19.10;99.90;;;;;;5014230;28;20465;-67
2021/07/15 05:50:17;;;;;;;11.20;10.20;;;19.10;99.90;;;;;;5013756;28;20833;-66
2021/07/15 05:52:43;;;;;;;8.87;8.07;;;19.10;99.90;;;;;;5013108;28;20454;-66
2021/07/15 05:55:11;;;;;;;11.73;10.63;;;19.30;99.90;;;;;;5013765;28;20446;-66
2021/07/15 05:57:38;;;;;;;10.60;9.80;;;19.40;99.90;;;;;;5013205;28;20453;-67
2021/07/15 06:00:07;;;;;;;12.33;11.03;;;19.60;99.90;;;;;;5013357;28;20478;-67
2021/07/15 06:02:35;;;;;;;11.50;10.40;;;19.80;99.90;;;;;;5013408;28;20450;-67
2021/07/15 06:05:02;;;;;;;11.47;10.37;;;20.00;99.90;;;;;;5013894;28;20485;-67
2021/07/15 06:07:29;;;;;;;11.60;10.70;;;20.20;99.90;;;;;;5013453;28;20457;-66
2021/07/15 06:09:55;;;;;;;12.67;11.57;;;20.30;99.90;;;;;;5013529;28;20481;-66
2021/07/15 06:12:22;;;;;;;12.47;11.57;;;20.40;99.90;;;;;;5013118;28;20446;-67
2021/07/15 06:14:49;;;;;;;13.63;12.30;;;20.50;99.90;;;;;;5013158;28;20469;-67
2021/07/15 06:17:16;;;;;;;13.20;11.97;;;20.60;99.90;;;;;;5013262;28;20454;-67
2021/07/15 06:19:44;;;;;;;14.73;13.53;;;20.60;99.90;;;;;;5013381;28;20474;-66
2021/07/15 06:22:11;;;;;;;18.10;16.40;;;20.70;99.90;;;;;;5013073;28;20799;-67
2021/07/15 06:24:37;;;;;;;16.60;15.20;;;20.80;99.90;;;;;;5013420;28;20481;-66
2021/07/15 06:27:04;;;;;;;17.43;16.03;;;20.90;99.90;;;;;;5013269;28;20446;-67
2021/07/15 06:29:31;;;;;;;18.40;17.00;;;20.90;99.90;;;;;;5012844;28;20489;-66
2021/07/15 06:31:58;;;;;;;20.20;18.53;;;20.80;99.90;;;;;;5011535;28;20450;-66
2021/07/15 06:34:24;;;;;;;19.90;18.50;;;20.70;99.90;;;;;;5014459;28;20457;-65
2021/07/15 06:36:53;;;;;;;20.07;18.50;;;20.70;99.90;;;;;;5015750;28;20441;-65
2021/07/15 06:39:20;;;;;;;21.03;19.23;;;20.70;99.90;;;;;;5015701;28;20531;-66
2021/07/15 06:41:47;;;;;;;20.27;18.80;;;20.70;99.90;;;;;;5015491;28;20452;-65
2021/07/15 06:44:14;;;;;;;24.43;22.23;;;20.70;99.90;;;;;;5015697;28;20442;-65
2021/07/15 06:46:40;;;;;;;24.23;22.13;;;20.60;99.90;;;;;;5015530;28;20524;-65
2021/07/15 06:49:07;;;;;;;24.17;22.27;;;20.60;99.90;;;;;;5015477;28;20492;-66
2021/07/15 06:51:35;;;;;;;24.37;22.47;;;20.70;99.90;;;;;;5015274;28;20460;-67
2021/07/15 06:54:03;;;;;;;24.40;22.40;;;20.90;99.90;;;;;;5015516;28;20450;-65
2021/07/15 06:56:29;;;;;;;24.00;22.10;;;21.10;99.90;;;;;;5015568;28;20442;-65
2021/07/15 06:58:56;;;;;;;22.90;21.30;;;21.20;99.90;;;;;;5015298;28;20465;-65
2021/07/15 07:01:23;;;;;;;22.50;20.90;;;21.20;99.90;;;;;;5015212;28;20464;-65
2021/07/15 07:03:49;;;;;;;25.90;24.10;;;21.30;99.90;;;;;;5015374;28;20442;-66
2021/07/15 07:06:16;;;;;;;26.83;24.70;;;21.30;99.90;;;;;;5015146;28;20485;-66
2021/07/15 07:08:43;;;;;;;27.50;25.50;;;21.40;99.90;;;;;;5014961;28;20895;-66
2021/07/15 07:11:11;;;;;;;26.97;24.67;;;21.40;99.90;;;;;;5015039;28;20854;-65
2021/07/15 07:13:37;;;;;;;25.87;23.97;;;21.50;99.90;;;;;;5015067;28;20539;-66
2021/07/15 07:16:05;;;;;;;27.57;25.33;;;21.60;99.90;;;;;;5015103;28;20441;-65
2021/07/15 07:18:32;;;;;;;26.60;24.77;;;21.70;99.90;;;;;;5015066;28;20476;-65
2021/07/15 07:21:00;;;;;;;28.33;26.47;;;21.80;99.90;;;;;;5014877;28;20442;-67
2021/07/15 07:23:26;;;;;;;26.67;24.97;;;22.00;99.90;;;;;;5014780;28;20456;-65
2021/07/15 07:25:53;;;;;;;26.80;25.10;;;22.10;99.90;;;;;;5014957;28;20504;-66
2021/07/15 07:28:21;;;;;;;28.80;26.60;;;22.20;99.90;;;;;;5014764;28;20445;-65
2021/07/15 07:30:48;;;;;;;28.40;26.50;;;22.20;99.90;;;;;;5014745;28;21315;-66
2021/07/15 07:33:14;;;;;;;31.27;29.30;;;22.40;99.90;;;;;;5014470;28;20464;-65
2021/07/15 07:35:41;;;;;;;29.13;27.30;;;22.50;99.90;;;;;;5014721;28;20442;-65
2021/07/15 07:38:10;;;;;;;29.00;27.20;;;22.70;99.90;;;;;;5014645;28;20468;-66
2021/07/15 07:40:37;;;;;;;28.10;26.50;;;22.80;99.90;;;;;;5014589;28;20811;-65
2021/07/15 07:43:03;;;;;;;28.17;26.40;;;23.00;99.90;;;;;;5014320;28;20855;-65
2021/07/15 07:45:32;;;;;;;30.00;27.90;;;23.20;99.90;;;;;;5013688;28;20512;-65
2021/07/15 07:48:00;;;;;;;28.33;26.73;;;23.40;99.90;;;;;;5014445;28;20461;-66
2021/07/15 07:50:27;;;;;;;30.90;29.07;;;23.50;99.90;;;;;;5014500;28;20553;-66
2021/07/15 07:52:55;;;;;;;30.77;28.97;;;23.70;99.90;;;;;;5014140;28;20442;-65
2021/07/15 07:55:22;;;;;;;30.73;28.90;;;23.80;99.90;;;;;;5014405;28;20449;-66
2021/07/15 07:57:49;;;;;;;32.60;30.20;;;24.00;99.90;;;;;;5014388;28;20445;-66
2021/07/15 08:00:17;;;;;;;35.17;32.93;;;24.20;99.90;;;;;;5014187;28;20477;-66
2021/07/15 08:02:48;;;;;;;31.60;29.70;;;24.30;99.90;;;;;;5014126;28;20500;-66
2021/07/15 08:05:19;;;;;;;31.13;29.23;;;24.50;99.90;;;;;;5013971;28;20488;-66
2021/07/15 08:07:46;;;;;;;34.27;32.17;;;24.70;99.90;;;;;;5014154;28;20500;-66
2021/07/15 08:10:13;;;;;;;35.17;33.07;;;24.60;99.90;;;;;;5014025;28;20470;-65
2021/07/15 08:12:40;;;;;;;36.37;34.33;;;24.80;99.90;;;;;;5013978;28;20445;-65
2021/07/15 08:15:09;;;;;;;33.17;31.27;;;25.10;99.90;;;;;;5013973;28;20449;-65
2021/07/15 08:17:35;;;;;;;34.43;32.43;;;25.50;99.90;;;;;;5013871;28;20461;-66
2021/07/15 08:20:04;;;;;;;35.23;33.17;;;26.00;99.90;;;;;;5013889;28;20462;-65
2021/07/15 08:22:31;;;;;;;32.20;30.37;;;26.00;99.90;;;;;;5013738;28;20442;-65
2021/07/15 08:24:58;;;;;;;32.60;30.60;;;25.80;99.90;;;;;;5013598;28;20951;-65
2021/07/15 08:27:24;;;;;;;32.97;31.07;;;25.40;99.90;;;;;;5013851;28;20449;-66
2021/07/15 08:29:51;;;;;;;33.30;31.20;;;25.30;99.90;;;;;;5013594;28;20478;-66
2021/07/15 08:32:19;;;;;;;33.13;31.13;;;25.40;99.90;;;;;;5013405;28;20441;-66
2021/07/15 08:34:45;;;;;;;34.43;32.43;;;25.30;99.90;;;;;;5013623;28;20477;-65
2021/07/15 08:37:13;;;;;;;32.37;30.47;;;25.20;99.90;;;;;;5013550;28;20447;-65
2021/07/15 08:39:40;;;;;;;33.77;31.50;;;25.50;99.90;;;;;;5013439;28;20926;-65
2021/07/15 08:42:09;;;;;;;34.20;32.00;;;25.80;99.90;;;;;;5013212;28;20448;-66
2021/07/15 08:44:39;;;;;;;35.17;33.07;;;25.90;99.90;;;;;;5013302;28;20454;-66
2021/07/15 08:47:06;;;;;;;35.50;33.40;;;25.50;99.90;;;;;;5013376;28;20554;-66
2021/07/15 08:49:32;;;;;;;34.97;32.60;;;24.70;99.90;;;;;;5013140;28;20555;-65
2021/07/15 08:52:00;;;;;;;34.90;32.70;;;24.30;99.90;;;;;;5012933;28;20814;-66
2021/07/15 08:54:47;;;;;;;33.23;31.50;;;24.20;99.90;;;;;;5013259;28;20450;-66
2021/07/15 08:57:14;;;;;;;31.33;29.50;;;24.00;99.90;;;;;;5012118;28;20446;-65
2021/07/15 08:59:41;;;;;;;32.57;30.67;;;23.90;99.90;;;;;;5013074;28;20548;-65
2021/07/15 09:02:12;;;;;;;32.93;30.93;;;24.20;99.90;;;;;;5012852;28;20449;-66
2021/07/15 09:04:38;;;;;;;30.23;28.63;;;24.10;99.90;;;;;;5013011;28;20892;-66
2021/07/15 09:07:05;;;;;;;31.40;29.63;;;23.90;99.90;;;;;;5012787;28;21069;-65
2021/07/15 09:09:33;;;;;;;30.00;28.50;;;23.90;99.90;;;;;;5012714;28;20465;-66
2021/07/15 09:12:00;;;;;;;30.53;28.40;;;24.10;99.90;;;;;;5012720;28;20874;-65
2021/07/15 09:14:27;;;;;;;30.20;28.60;;;24.50;99.90;;;;;;5012810;28;20442;-66
2021/07/15 09:16:55;;;;;;;29.43;27.83;;;24.80;99.90;;;;;;5012782;28;20496;-65
2021/07/15 09:19:25;;;;;;;29.00;27.40;;;24.80;99.90;;;;;;5012670;28;20470;-66
2021/07/15 09:21:53;;;;;;;27.13;25.73;;;24.80;99.90;;;;;;5012460;28;20457;-65
2021/07/15 09:24:28;;;;;;;27.23;25.93;;;24.80;99.90;;;;;;5012504;28;20450;-65
2021/07/15 09:26:56;;;;;;;27.57;26.20;;;25.00;99.90;;;;;;5012332;28;21017;-65
2021/07/15 09:29:23;;;;;;;27.97;26.57;;;25.20;99.90;;;;;;5012553;28;20870;-66
2021/07/15 09:31:57;;;;;;;28.67;27.37;;;25.60;99.90;;;;;;5012394;28;20450;-65
2021/07/15 09:34:26;;;;;;;28.80;27.40;;;25.80;99.90;;;;;;5012529;28;20452;-66
2021/07/15 09:36:54;;;;;;;27.83;26.23;;;25.80;99.90;;;;;;5012463;28;20472;-65
2021/07/15 09:39:22;;;;;;;26.60;25.50;;;25.70;99.90;;;;;;5012295;28;20466;-66
2021/07/15 09:42:11;;;;;;;27.50;26.30;;;25.80;99.90;;;;;;5012156;28;20457;-65
2021/07/15 09:44:39;;;;;;;29.13;27.63;;;26.20;99.90;;;;;;5012308;28;20503;-65
2021/07/15 09:47:06;;;;;;;29.73;28.33;;;26.30;99.90;;;;;;5012110;28;20484;-65
2021/07/15 09:49:34;;;;;;;31.33;29.67;;;26.60;99.90;;;;;;5012076;28;20477;-65
2021/07/15 09:52:01;;;;;;;28.40;27.10;;;26.60;99.90;;;;;;5012188;28;20844;-65
2021/07/15 09:54:29;;;;;;;26.23;25.13;;;26.90;99.90;;;;;;5012108;28;20854;-66
2021/07/15 09:56:56;;;;;;;29.47;28.17;;;27.10;99.90;;;;;;5011996;28;20950;-66
2021/07/15 09:59:25;;;;;;;28.10;27.00;;;27.10;99.90;;;;;;5011884;28;20831;-66
2021/07/15 10:01:53;;;;;;;28.50;27.30;;;27.60;99.90;;;;;;5011865;28;20454;-66
2021/07/15 10:04:24;;;;;;;29.60;28.13;;;27.90;99.90;;;;;;5012048;28;20757;-66
2021/07/15 10:06:53;;;;;;;28.87;27.57;;;27.60;99.90;;;;;;5012066;28;20965;-66
2021/07/15 10:09:23;;;;;;;27.40;26.30;;;28.00;99.90;;;;;;5011548;28;20512;-66
2021/07/15 10:11:54;;;;;;;28.70;27.50;;;28.00;99.90;;;;;;5011602;28;20823;-65
2021/07/15 10:14:33;;;;;;;27.67;26.50;;;28.10;99.90;;;;;;5012082;28;20460;-67
2021/07/15 10:17:00;;;;;;;29.10;27.90;;;28.20;99.90;;;;;;5011992;28;20442;-66
2021/07/15 10:19:27;;;;;;;29.63;28.20;;;28.60;99.90;;;;;;5011866;28;20662;-65
2021/07/15 10:21:58;;;;;;;29.77;28.40;;;28.60;98.20;;;;;;5011580;28;20446;-66
2021/07/15 10:24:26;;;;;;;28.33;27.23;;;28.50;98.40;;;;;;5011776;28;20454;-65
2021/07/15 10:26:55;;;;;;;30.13;28.73;;;28.40;98.80;;;;;;5011724;28;20583;-65
2021/07/15 10:29:22;;;;;;;28.50;27.30;;;28.20;98.70;;;;;;5011690;28;20509;-65
2021/07/15 10:31:51;;;;;;;31.20;29.60;;;28.00;99.80;;;;;;5011569;28;20453;-66
2021/07/15 10:34:18;;;;;;;28.50;27.30;;;27.90;99.30;;;;;;5011602;28;20876;-65
2021/07/15 10:36:46;;;;;;;29.00;27.80;;;28.10;99.10;;;;;;5011852;28;20798;-65
2021/07/15 10:39:14;;;;;;;29.40;28.00;;;28.20;98.90;;;;;;5011472;28;20469;-65
2021/07/15 10:41:43;;;;;;;29.97;28.67;;;28.60;98.00;;;;;;5011315;28;20545;-65
2021/07/15 10:44:10;;;;;;;28.07;26.97;;;29.10;96.00;;;;;;5011471;28;20947;-65
2021/07/15 10:46:38;;;;;;;27.93;26.83;;;29.30;94.20;;;;;;5011625;28;20509;-66
2021/07/15 10:49:08;;;;;;;29.97;28.67;;;29.00;94.70;;;;;;5011381;28;20465;-66
2021/07/15 10:51:36;;;;;;;30.47;29.17;;;28.70;95.30;;;;;;5011438;28;20450;-65
2021/07/15 10:54:04;;;;;;;29.40;28.10;;;28.30;95.90;;;;;;5011567;28;20491;-66
2021/07/15 10:56:31;;;;;;;29.30;28.00;;;27.80;97.20;;;;;;5011477;28;20442;-66
2021/07/15 10:58:58;;;;;;;28.80;27.50;;;27.40;98.90;;;;;;5011443;28;20473;-65
2021/07/15 11:01:41;;;;;;;29.63;28.33;;;27.00;99.90;;;;;;5011162;28;20476;-66
2021/07/15 11:04:12;;;;;;;30.53;29.03;;;26.80;99.90;;;;;;5011354;28;20793;-65
2021/07/15 11:06:41;;;;;;;30.70;29.20;;;26.50;99.90;;;;;;5011294;28;20569;-66
2021/07/15 11:09:10;;;;;;;29.67;28.30;;;26.30;99.90;;;;;;5011309;28;20983;-66
2021/07/15 11:11:42;;;;;;;30.47;28.97;;;25.90;99.90;;;;;;5011214;28;20448;-65
2021/07/15 11:14:37;;;;;;;29.47;28.07;;;25.70;99.90;;;;;;5011402;28;20450;-65
2021/07/15 11:17:25;;;;;;;28.87;27.57;;;25.60;99.90;;;;;;5011345;28;20445;-66
2021/07/15 11:19:59;;;;;;;29.50;27.80;;;25.40;99.90;;;;;;5011590;28;20519;-66
2021/07/15 11:22:53;;;;;;;28.67;27.17;;;25.50;99.90;;;;;;5014788;28;20464;-66
2021/07/15 11:25:33;;;;;;;28.60;27.20;;;25.80;99.90;;;;;;4969286;28;20513;-66
2021/07/15 11:28:03;;;;;;;28.97;27.60;;;26.20;99.90;;;;;;5014873;28;20594;-65
2021/07/15 11:30:46;;;;;;;29.40;27.90;;;26.80;99.90;;;;;;5014665;28;20553;-65
2021/07/15 11:33:33;;;;;;;28.60;27.30;;;27.30;99.90;;;;;;5012334;28;20464;-66
2021/07/15 11:36:05;;;;;;;28.80;27.47;;;27.40;99.90;;;;;;5014809;28;20939;-65
2021/07/15 11:38:34;;;;;;;28.77;27.47;;;27.60;99.90;;;;;;5014681;28;20862;-65
2021/07/15 11:41:02;;;;;;;28.43;26.97;;;27.00;99.90;;;;;;5014541;28;20450;-66
2021/07/15 11:43:32;;;;;;;28.47;27.17;;;26.70;99.90;;;;;;5014614;28;20445;-65
2021/07/15 11:46:12;;;;;;;27.93;26.53;;;26.80;99.90;;;;;;5014529;28;20453;-65
2021/07/15 11:48:52;;;;;;;29.10;27.60;;;26.70;99.90;;;;;;5014500;28;20473;-66
2021/07/15 11:51:29;;;;;;;28.47;26.90;;;26.80;99.90;;;;;;5014319;28;20883;-65
2021/07/15 11:54:31;;;;;;;29.30;27.90;;;27.00;99.90;;;;;;5014408;28;20850;-65
2021/07/15 11:57:00;;;;;;;30.13;28.83;;;27.00;99.90;;;;;;5014631;28;20999;-66
2021/07/15 11:59:38;;;;;;;29.10;27.90;;;26.70;99.90;;;;;;5014394;28;20462;-65
2021/07/15 12:02:08;;;;;;;29.67;28.13;;;26.80;99.90;;;;;;5014034;28;20438;-65
2021/07/15 12:05:13;;;;;;;29.90;28.50;;;26.70;99.90;;;;;;5014401;28;20496;-66
2021/07/15 12:07:45;;;;;;;29.97;28.47;;;26.10;99.90;;;;;;5014065;28;20570;-66
2021/07/15 12:10:18;;;;;;;27.90;26.63;;;26.30;99.90;;;;;;5014240;28;20781;-65
2021/07/15 12:12:45;;;;;;;28.30;26.90;;;25.90;99.90;;;;;;5013770;28;20912;-66
2021/07/15 12:15:19;;;;;;;28.30;27.00;;;25.90;99.90;;;;;;5014133;28;20835;-66
2021/07/15 12:17:48;;;;;;;26.23;25.13;;;25.70;99.90;;;;;;5014038;28;20441;-65
2021/07/15 12:20:15;;;;;;;28.30;26.90;;;25.50;99.90;;;;;;5013794;28;20496;-65
2021/07/15 12:22:53;;;;;;;27.47;26.23;;;25.40;99.90;;;;;;5013606;28;20456;-65
2021/07/15 12:25:22;;;;;;;27.40;26.10;;;25.40;99.90;;;;;;5013786;28;20448;-65
2021/07/15 12:27:51;;;;;;;27.63;26.33;;;25.30;99.90;;;;;;5013740;28;20482;-65
2021/07/15 12:30:19;;;;;;;28.63;26.97;;;25.30;99.90;;;;;;5050888;23;20525;-68
2021/07/15 12:32:58;;;;;;;27.07;25.87;;;25.20;99.90;;;;;;5032933;28;20441;-68
2021/07/15 12:35:25;;;;;;;26.67;25.47;;;25.20;99.90;;;;;;5033495;28;20457;-68
2021/07/15 12:37:53;;;;;;;25.83;24.63;;;25.20;99.90;;;;;;5033366;28;20452;-68
2021/07/15 12:40:26;;;;;;;26.00;24.67;;;25.10;99.90;;;;;;5033452;28;20471;-68
2021/07/15 12:42:53;;;;;;;26.00;24.90;;;25.10;99.90;;;;;;5033095;28;20921;-68
2021/07/15 12:45:21;;;;;;;28.27;26.87;;;25.30;99.90;;;;;;5033135;28;20452;-68